Time;durP1;ratioP1;P1;durP2;ratioP2;P2;SDS_P1;SDS_P2;PMS_P1;PMS_P2;Temp;Humidity;BMP_temperature;BMP_pressure;BME280_temperature;BME280_humidity;BME280_pressure;Samples;Min_cycle;Max_cycle;Signal;HPM_P1;HPM_P2
2022/06/01 00:02:54;;;;;;;11.85;8.23;;;;;;;14.92;77.30;100251.15;712669;1180;115395;-76
2022/06/01 00:17:58;;;;;;;8.30;5.40;;;;;;;15.86;74.31;100221.62;712402;1180;115348;-78
2022/06/01 00:33:02;;;;;;;5.33;4.07;;;;;;;16.50;71.53;100208.22;712598;1178;115463;-77
2022/06/01 00:48:04;;;;;;;6.08;5.38;;;;;;;16.19;72.41;100205.59;712586;1180;115988;-77
2022/06/01 01:03:10;;;;;;;7.30;4.85;;;;;;;16.10;74.53;100204.80;712743;1180;115149;-76
2022/06/01 01:18:17;;;;;;;7.23;5.35;;;;;;;15.83;75.51;100198.98;712791;1178;114868;-77
2022/06/01 01:33:24;;;;;;;6.77;4.70;;;;;;;15.71;77.66;100176.53;712274;1180;115996;-77
2022/06/01 01:48:27;;;;;;;6.90;5.10;;;;;;;15.77;78.63;100181.95;712250;1179;115323;-77
2022/06/01 02:03:37;;;;;;;5.60;4.75;;;;;;;15.78;79.44;100188.91;712456;1178;115092;-78
2022/06/01 02:18:46;;;;;;;8.45;5.30;;;;;;;15.68;80.24;100168.92;712473;1177;115720;-78
2022/06/01 02:33:50;;;;;;;7.90;5.65;;;;;;;15.50;83.42;100142.73;712822;1180;116128;-77
2022/06/01 02:48:53;;;;;;;4.65;4.20;;;;;;;15.05;85.10;100085.06;712575;1179;115690;-77
2022/06/01 03:03:57;;;;;;;5.17;4.57;;;;;;;14.90;88.17;100124.55;712690;1179;115212;-77
2022/06/01 03:19:00;;;;;;;8.43;5.97;;;;;;;14.93;89.28;100166.46;712433;1179;115451;-79
2022/06/01 03:34:03;;;;;;;7.40;5.70;;;;;;;14.77;90.78;100125.05;712543;1180;115279;-78
2022/06/01 03:49:05;;;;;;;7.03;5.45;;;;;;;14.25;94.38;100128.82;712205;1179;114366;-78
2022/06/01 04:04:08;;;;;;;7.40;5.70;;;;;;;14.48;96.31;100123.70;712506;1180;115241;-77
2022/06/01 04:19:10;;;;;;;8.53;6.15;;;;;;;14.40;97.03;100131.63;712875;1178;115868;-78
2022/06/01 04:34:12;;;;;;;9.98;7.40;;;;;;;14.58;97.30;100112.16;712904;1177;115223;-76
2022/06/01 04:49:15;;;;;;;12.03;7.90;;;;;;;14.51;97.34;100111.19;712484;1180;115794;-77
2022/06/01 05:04:17;;;;;;;10.75;7.30;;;;;;;14.58;98.26;100107.72;717918;1178;115784;-87
2022/06/01 05:19:19;;;;;;;11.45;8.08;;;;;;;14.32;99.04;100049.84;713198;1179;115346;-77
2022/06/01 05:34:21;;;;;;;10.70;7.47;;;;;;;14.75;99.53;100065.48;712860;1180;115648;-77
2022/06/01 05:49:25;;;;;;;12.48;9.75;;;;;;;15.00;99.44;100058.33;712379;1180;115793;-76
2022/06/01 06:04:28;;;;;;;10.50;8.28;;;;;;;15.30;99.83;100037.42;713942;1178;116083;-74
2022/06/01 06:19:30;;;;;;;12.45;9.70;;;;;;;15.57;100.00;100054.64;713356;1179;116051;-76
2022/06/01 06:34:32;;;;;;;10.25;8.73;;;;;;;15.47;100.00;100049.55;712767;1178;115830;-76
2022/06/01 06:49:37;;;;;;;13.70;9.40;;;;;;;15.61;100.00;100047.16;713138;1179;115407;-77
2022/06/01 07:04:41;;;;;;;13.35;10.20;;;;;;;15.61;100.00;100041.88;714775;1179;116318;-75
2022/06/01 07:19:53;;;;;;;30.50;15.83;;;;;;;15.80;100.00;100032.69;712701;1178;116438;-78
2022/06/01 07:34:55;;;;;;;12.63;8.73;;;;;;;16.03;100.00;100019.48;712796;1177;116237;-78
2022/06/01 07:49:58;;;;;;;16.88;10.93;;;;;;;16.20;100.00;100014.88;712725;1179;115415;-78
2022/06/01 08:05:22;;;;;;;23.30;12.70;;;;;;;16.47;100.00;100005.54;713428;1179;115670;-79
2022/06/01 08:20:26;;;;;;;13.37;10.83;;;;;;;16.78;100.00;100017.78;718183;1180;116393;-79
2022/06/01 08:35:34;;;;;;;16.45;10.85;;;;;;;17.38;100.00;99993.08;714134;1179;115410;-80
2022/06/01 08:50:39;;;;;;;13.95;10.15;;;;;;;18.06;100.00;99996.23;712708;1179;114639;-79
2022/06/01 09:05:47;;;;;;;10.27;7.67;;;;;;;18.65;100.00;99988.05;712543;1179;114719;-79
2022/06/01 09:36:10;;;;;;;10.90;8.65;;;;;;;19.34;94.46;99968.56;712706;1177;115329;-79
2022/06/01 09:51:22;;;;;;;10.97;7.90;;;;;;;20.27;91.47;99980.33;712916;1180;115071;-79
2022/06/01 10:06:31;;;;;;;12.90;9.77;;;;;;;20.76;89.71;99973.72;712552;1180;115153;-79
2022/06/01 10:21:51;;;;;;;12.10;8.80;;;;;;;21.89;85.62;99962.66;712505;1178;115444;-79
2022/06/01 10:37:20;;;;;;;9.90;7.85;;;;;;;21.57;83.59;99944.81;712220;1179;114970;-78
2022/06/01 10:53:03;;;;;;;9.93;7.37;;;;;;;21.85;83.71;99938.23;713259;1177;115759;-77
2022/06/01 11:08:30;;;;;;;7.88;6.70;;;;;;;20.55;82.86;99955.31;712824;1178;116815;-78
2022/06/01 11:23:55;;;;;;;12.63;10.53;;;;;;;19.26;89.21;99958.11;712765;1178;114786;-83
2022/06/01 11:39:18;;;;;;;12.18;9.55;;;;;;;19.18;93.23;99958.30;713953;1177;114524;-78
2022/06/01 11:54:35;;;;;;;6.80;5.25;;;;;;;21.11;86.83;99940.55;712893;1178;115419;-76
2022/06/01 12:09:38;;;;;;;6.75;6.05;;;;;;;21.51;79.67;99940.33;715948;1179;114814;-74
2022/06/01 12:40:17;;;;;;;21.35;18.18;;;;;;;19.17;90.21;99965.44;713008;1180;116190;-75
2022/06/01 12:55:23;;;;;;;12.68;10.85;;;;;;;18.92;90.51;99950.00;712662;1180;115728;-85
2022/06/01 13:10:29;;;;;;;7.73;6.07;;;;;;;20.55;85.54;99989.95;714073;1178;115092;-79
2022/06/01 13:25:35;;;;;;;4.80;4.30;;;;;;;20.86;78.58;99991.11;714225;1179;115192;-79
2022/06/01 13:40:48;;;;;;;4.03;3.63;;;;;;;21.65;72.89;99981.11;714242;1178;115530;-80
2022/06/01 13:56:07;;;;;;;4.55;4.15;;;;;;;21.86;69.16;99998.62;714011;1179;115457;-82
2022/06/01 14:11:15;;;;;;;4.90;3.77;;;;;;;22.22;68.33;100006.97;713658;1178;114853;-75
2022/06/01 14:41:45;;;;;;;5.85;5.30;;;;;;;21.84;66.67;100043.42;716385;1179;114895;-75
2022/06/01 14:56:48;;;;;;;5.80;3.65;;;;;;;22.50;65.05;100064.50;715874;1178;115128;-75
2022/06/01 15:11:52;;;;;;;4.60;2.88;;;;;;;22.14;61.98;100068.68;718553;1178;114632;-75
2022/06/01 15:26:54;;;;;;;2.27;2.07;;;;;;;21.81;61.26;100065.19;716027;1177;115015;-74
2022/06/01 15:41:58;;;;;;;4.13;1.87;;;;;;;20.84;60.32;100097.95;715295;1180;115856;-74
2022/06/01 15:57:01;;;;;;;3.85;2.48;;;;;;;20.18;61.72;100118.20;714704;1180;115046;-74
2022/06/01 16:12:05;;;;;;;3.85;2.60;;;;;;;19.74;63.78;100151.42;714086;1178;115105;-74
2022/06/01 16:27:09;;;;;;;5.75;3.70;;;;;;;18.48;69.81;100194.72;713656;1180;114376;-74
2022/06/01 16:42:18;;;;;;;7.35;5.23;;;;;;;17.31;72.14;100167.97;714801;1178;114529;-74
2022/06/01 16:57:22;;;;;;;9.80;7.70;;;;;;;17.62;73.90;100143.10;714563;1180;115910;-76
2022/06/01 17:12:25;;;;;;;4.60;3.07;;;;;;;18.22;73.85;100137.67;713983;1180;115385;-73
2022/06/01 17:27:27;;;;;;;7.40;4.80;;;;;;;18.48;74.54;100115.05;713206;1180;114856;-73
2022/06/01 17:42:30;;;;;;;7.53;3.80;;;;;;;18.49;74.36;100109.53;714118;1180;114788;-78
2022/06/01 17:57:34;;;;;;;1.97;1.53;;;;;;;17.84;74.71;100122.73;713723;1180;115054;-77
2022/06/01 18:12:37;;;;;;;2.68;2.25;;;;;;;17.30;76.19;100130.04;713058;1180;115810;-74
2022/06/01 18:27:39;;;;;;;5.70;4.10;;;;;;;16.85;78.67;100141.56;713665;1180;114714;-76
2022/06/01 18:42:44;;;;;;;9.65;6.30;;;;;;;16.43;80.27;100152.50;713156;1178;114615;-75
2022/06/01 18:57:47;;;;;;;22.10;9.45;;;;;;;16.26;82.22;100217.14;714108;1178;115675;-80
2022/06/01 19:12:50;;;;;;;17.77;5.87;;;;;;;15.95;85.68;100231.17;713432;1179;116300;-77
2022/06/01 19:27:52;;;;;;;7.07;4.07;;;;;;;15.71;86.28;100222.30;713388;1180;116144;-78
2022/06/01 19:58:18;;;;;;;6.85;3.88;;;;;;;15.09;86.76;100178.83;713656;1179;115560;-76
2022/06/01 20:13:22;;;;;;;13.05;5.55;;;;;;;14.95;87.05;100187.42;713779;1179;115759;-76
2022/06/01 20:28:25;;;;;;;8.97;5.00;;;;;;;14.50;89.21;100208.00;713489;1178;115875;-75
2022/06/01 20:43:28;;;;;;;5.37;3.80;;;;;;;14.25;90.19;100201.85;720856;1177;115826;-77
2022/06/01 20:58:31;;;;;;;6.60;3.23;;;;;;;14.00;90.67;100193.86;720595;1178;115018;-75
2022/06/01 21:13:34;;;;;;;6.78;3.70;;;;;;;13.89;90.75;100200.25;713402;1178;114780;-75
2022/06/01 21:28:37;;;;;;;5.70;3.60;;;;;;;13.70;91.16;100209.25;712684;1180;114708;-75
2022/06/01 21:43:40;;;;;;;14.10;4.87;;;;;;;13.56;91.86;100223.01;713213;1177;116013;-75
2022/06/01 21:58:42;;;;;;;9.25;5.35;;;;;;;13.40;92.04;100219.28;712714;1177;115218;-75
2022/06/01 22:13:45;;;;;;;9.10;5.40;;;;;;;13.18;92.86;100225.84;712513;1177;115302;-76
2022/06/01 22:28:47;;;;;;;6.18;3.88;;;;;;;12.82;92.76;100237.25;712698;1180;114250;-77
2022/06/01 22:43:50;;;;;;;7.10;3.90;;;;;;;12.58;93.36;100245.75;712541;1178;115858;-77
2022/06/01 22:58:53;;;;;;;13.90;6.15;;;;;;;12.51;93.54;100259.65;713139;1180;115834;-76
2022/06/01 23:13:55;;;;;;;6.40;4.63;;;;;;;12.38;93.45;100273.15;712765;1178;115879;-77
2022/06/01 23:29:33;;;;;;;13.63;8.30;;;;;;;12.39;94.94;100277.44;714060;1177;114757;-77
2022/06/01 23:44:58;;;;;;;9.53;5.75;;;;;;;12.33;94.25;100297.28;712327;1177;115400;-76
